Latest Weather Observations for Bankstown

IDN60801

Issued at 2:35 pm EST Saturday 26 July 2014 (issued every 30 minutes, with the page automatically refreshed every 10 minutes)

About weather observations | Map of weather stations | Latest weather observations for NSW | Other Formats
Station Details ID: 066137 Name: BANKSTOWN AIRPORT AWS Lat: -33.92 Lon: 150.99 Height: 6.5 m
Data from the previous 72 hours. | See also: Recent months at Bankstown
Date/Time
EST
Temp
°C
App
Temp
°C
Dew
Point
Rel
Hum
%
Delta-T
°C
Wind Press
QNH
hPa
Press
MSL
hPa
Rain
since 9 am
mm
Dir
 
Spd
km/h
Gust
km/h
Spd
kts
Gust
kts
26/02:30pm 15.0 10.0 6.6 57 4.1 NW 22 43 12 23 1020.4 - 1.0
26/02:23pm 15.4 8.5 6.4 55 4.4 WNW 32 43 17 23 1020.7 - 1.0
26/02:00pm 17.7 15.8 10.6 63 3.8 W 11 15 6 8 1020.5 1020.5 1.0
26/01:30pm 16.5 15.4 10.8 69 3.0 W 7 13 4 7 1020.6 - 1.0
26/01:00pm 15.7 14.4 11.1 74 2.4 WNW 9 13 5 7 1021.3 1021.3 1.0
26/12:30pm 14.8 13.8 12.3 85 1.4 NW 9 13 5 7 1022.3 - 1.0
26/12:00pm 13.3 12.1 11.7 90 0.8 WNW 9 13 5 7 1023.0 1023.0 1.0
26/11:30am 13.0 11.4 11.7 92 0.7 WSW 11 13 6 7 1023.6 - 1.0
26/11:00am 12.5 11.6 11.4 93 0.6 WSW 7 15 4 8 1023.5 1023.5 1.0
26/10:46am 12.5 10.5 11.4 93 0.6 W 13 15 7 8 1024.3 - 1.0
26/10:30am 12.4 11.1 11.3 93 0.6 W 9 13 5 7 1024.1 - 1.0
26/10:28am 12.4 11.7 11.3 93 0.6 W 6 11 3 6 1023.7 - 1.0
26/10:07am 12.3 11.0 11.2 93 0.6 WSW 9 11 5 6 1024.2 - 1.0
26/10:00am 12.2 11.4 11.1 93 0.6 WSW 6 13 3 7 1024.0 1024.0 1.0
26/09:30am 11.9 8.9 10.8 93 0.6 N 17 20 9 11 1024.6 - 0.8
26/09:19am 11.6 9.3 10.5 93 0.6 NE 13 19 7 10 1023.6 - 0.6
26/09:00am 11.4 9.8 10.1 92 0.7 N 9 13 5 7 1024.4 1024.4 4.6
26/08:30am 11.4 10.3 10.1 92 0.7 W 6 7 3 4 1024.4 - 3.4
26/08:26am 11.5 10.5 10.2 92 0.7 W 6 7 3 4 1024.5 - 3.2
26/08:00am 11.4 11.1 10.0 91 0.7 W 2 6 1 3 1024.2 1024.2 2.6
26/07:43am 11.5 11.6 10.1 91 0.7 CALM 0 6 0 3 1024.3 - 2.6
26/07:30am 11.4 10.3 10.0 91 0.7 WNW 6 7 3 4 1024.1 - 2.6
26/07:26am 11.5 10.4 10.1 91 0.7 WNW 6 7 3 4 1024.2 - 2.6
26/07:00am 11.4 11.5 10.0 91 0.7 CALM 0 0 0 0 1024.4 1024.4 2.2
26/06:30am 11.5 10.8 9.9 90 0.8 N 4 7 2 4 1024.0 - 1.8
26/06:00am 11.2 11.1 9.3 88 0.9 N 0 0 0 0 1023.4 1023.4 1.4
26/05:30am 11.8 10.5 9.9 88 1.0 N 7 11 4 6 1023.1 - 1.4
26/05:00am 11.5 9.4 9.6 88 1.0 NNW 11 - 6 - - 1022.7 -
26/04:30am 11.0 9.5 9.3 89 0.8 NNW 7 7 4 4 1022.2 - 1.2
26/04:00am 10.8 10.6 9.1 89 0.8 CALM 0 0 0 0 1022.1 1022.1 1.2
26/03:30am 10.4 8.9 8.5 88 0.9 ENE 6 6 3 3 1022.3 - 1.2
26/03:00am 10.6 9.5 8.5 87 1.0 N 4 6 2 3 1022.4 1022.4 1.2
26/02:30am 11.1 9.7 9.0 87 1.0 W 6 11 3 6 1022.6 - 1.2
26/02:00am 10.8 10.4 8.2 84 1.3 CALM 0 0 0 0 1022.6 1022.6 1.2
26/01:30am 12.4 12.3 9.6 83 1.4 CALM 0 0 0 0 1022.6 - 1.2
26/01:00am 12.3 10.4 9.1 81 1.6 SW 9 13 5 7 1022.5 1022.5 1.2
26/12:30am 12.7 12.6 9.5 81 1.6 CALM 0 0 0 0 1022.6 - 1.2
26/12:00am 12.5 11.0 9.0 79 1.7 NE 7 9 4 5 1022.8 1022.8 1.2
 
Date/Time
EST
Temp
°C
App
Temp
°C
Dew
Point
Rel
Hum
%
Delta-T
°C
Wind Press
QNH
hPa
Press
MSL
hPa
Rain
since 9 am
mm
Dir
 
Spd
km/h
Gust
km/h
Spd
kts
Gust
kts
25/11:30pm 12.6 11.1 8.3 75 2.1 N 6 7 3 4 1022.7 - 1.2
25/11:00pm 15.1 13.7 9.0 67 3.1 N 6 7 3 4 1022.7 1022.7 1.2
25/10:30pm 15.6 14.1 9.1 65 3.3 N 7 11 4 6 1022.5 - 1.2
25/10:00pm 16.0 13.8 9.2 64 3.5 N 11 17 6 9 1022.4 1022.4 1.2
25/09:30pm 16.3 14.8 9.0 62 3.8 N 7 9 4 5 1022.6 - 1.2
25/09:00pm 16.7 14.8 9.1 61 3.9 N 9 13 5 7 1022.3 1022.3 1.2
25/08:30pm 17.0 14.7 8.9 59 4.2 N 11 17 6 9 1022.1 - 1.2
25/08:00pm 17.8 15.1 8.9 56 4.6 N 13 20 7 11 1021.9 1021.9 1.2
25/07:30pm 17.9 15.1 8.7 55 4.8 NNW 13 20 7 11 1021.8 - 1.2
25/07:00pm 18.2 15.0 8.5 53 5.0 NNW 15 20 8 11 1021.5 1021.5 1.2
25/06:30pm 18.4 14.9 8.7 53 5.0 NNW 17 26 9 14 1021.1 - 1.2
25/06:00pm 18.3 14.5 9.1 55 4.8 NNW 19 26 10 14 1020.6 1020.6 1.2
25/05:30pm 18.7 14.3 8.9 53 5.1 NNW 22 32 12 17 1020.1 - 1.2
25/05:00pm 19.2 14.3 8.5 50 5.5 N 24 39 13 21 1019.7 1019.7 1.2
25/04:30pm 19.6 14.7 8.6 49 5.7 N 24 35 13 19 1019.4 - 1.2
25/04:00pm 19.9 14.6 8.6 48 5.9 NNW 26 35 14 19 1019.6 1019.6 1.2
25/03:30pm 20.8 15.0 8.1 44 6.6 NNW 28 43 15 23 1019.3 - 1.2
25/03:26pm 20.7 15.0 8.4 45 6.4 NNW 28 46 15 25 1019.4 - 1.2
25/03:00pm 20.3 17.3 9.2 49 5.9 N 15 20 8 11 1019.2 1019.2 1.2
25/02:30pm 20.0 15.8 9.6 51 5.5 NNW 22 32 12 17 1019.2 - 1.2
25/02:00pm 19.1 15.9 9.9 55 4.9 N 17 26 9 14 1019.2 1019.2 1.2
25/01:30pm 19.0 15.2 9.8 55 4.9 N 20 33 11 18 1019.3 - 1.2
25/01:00pm 18.4 15.3 11.7 65 3.7 NNW 19 30 10 16 1019.6 1019.6 1.2
25/12:30pm 15.0 14.9 14.0 94 0.6 NNW 7 11 4 6 1020.3 - 1.2
25/12:00pm 10.8 10.8 9.7 93 0.6 CALM 0 0 0 0 1021.2 1021.2 1.2
25/11:30am 9.7 7.7 8.6 93 0.5 SSW 9 15 5 8 1021.6 - 1.2
25/11:00am 9.5 8.4 8.4 93 0.5 SW 4 7 2 4 1021.9 1021.9 1.2
25/10:30am 9.2 7.6 8.1 93 0.5 S 6 9 3 5 1022.4 - 1.0
25/10:00am 8.8 6.6 7.7 93 0.5 NNE 9 11 5 6 1023.2 1023.2 0.8
25/09:30am 8.3 6.0 7.4 94 0.4 SSE 9 17 5 9 1023.1 - 0.2
25/09:00am 7.8 5.9 6.9 94 0.4 WSW 6 7 3 4 1023.6 1023.6 0.2
25/08:30am 7.2 6.4 6.3 94 0.4 CALM 0 0 0 0 1022.8 - 0.0
25/08:00am 6.8 5.9 5.9 94 0.4 CALM 0 6 0 3 1022.3 1022.3 0.0
25/07:30am 5.1 3.8 4.1 93 0.4 CALM 0 0 0 0 1022.1 - 0.0
25/07:00am 4.8 3.4 3.8 93 0.4 CALM 0 0 0 0 1022.0 1022.0 0.0
25/06:59am 4.8 3.4 3.8 93 0.4 CALM 0 0 0 0 1021.9 - 0.0
25/06:30am 5.1 3.8 4.1 93 0.4 CALM 0 6 0 3 1021.2 - 0.0
25/06:00am 4.9 3.6 3.9 93 0.4 CALM 0 0 0 0 1020.7 1020.7 0.0
25/05:59am 5.0 3.7 4.0 93 0.4 CALM 0 0 0 0 1020.6 - 0.0
25/05:39am 5.9 4.8 4.9 93 0.4 CALM 0 0 0 0 1020.5 - 0.0
25/05:30am 5.8 4.6 4.8 93 0.4 CALM 0 7 0 4 1020.5 - 0.0
25/05:00am 4.8 3.4 3.6 92 0.5 CALM 0 0 0 0 1020.3 1020.3 0.0
25/04:54am 5.0 3.6 3.8 92 0.5 CALM 0 0 0 0 1020.3 - 0.0
25/04:52am 4.9 3.5 3.7 92 0.5 CALM 0 0 0 0 1020.3 - 0.0
25/04:30am 5.3 4.0 4.1 92 0.5 CALM 0 0 0 0 1020.3 - 0.0
25/04:00am 4.7 3.3 3.4 91 0.5 CALM 0 0 0 0 1020.2 1020.2 0.0
25/03:30am 5.5 4.2 4.2 91 0.6 CALM 0 0 0 0 1020.1 - 0.0
25/03:00am 5.6 4.3 4.2 91 0.6 CALM 0 2 0 1 1020.3 1020.3 0.0
25/02:47am 6.3 4.8 4.8 90 0.7 SW 2 7 1 4 1020.3 - 0.0
25/02:31am 7.7 6.9 6.3 91 0.6 CALM 0 0 0 0 1020.2 - 0.0
25/02:30am 7.6 6.7 6.2 91 0.6 CALM 0 0 0 0 1020.2 - 0.0
25/02:10am 7.1 6.1 5.6 90 0.7 CALM 0 0 0 0 1020.3 - 0.0
25/02:00am 7.1 5.3 5.4 89 0.8 SW 4 6 2 3 1020.3 1020.3 0.0
25/01:30am 8.3 7.6 6.9 91 0.6 CALM 0 0 0 0 1020.2 - 0.0
25/01:00am 8.0 7.2 6.5 90 0.7 CALM 0 0 0 0 1020.0 1020.0 0.0
25/12:30am 8.7 8.1 7.2 90 0.7 CALM 0 0 0 0 1020.0 - 0.0
25/12:00am 8.0 6.0 6.1 88 0.9 SSW 6 7 3 4 1020.4 1020.4 0.0
 
Date/Time
EST
Temp
°C
App
Temp
°C
Dew
Point
Rel
Hum
%
Delta-T
°C
Wind Press
QNH
hPa
Press
MSL
hPa
Rain
since 9 am
mm
Dir
 
Spd
km/h
Gust
km/h
Spd
kts
Gust
kts
24/11:30pm 8.9 8.2 6.9 87 0.9 CALM 0 0 0 0 1020.4 - 0.0
24/11:00pm 7.9 6.8 5.2 83 1.2 CALM 0 0 0 0 1020.9 1020.9 0.0
24/10:30pm 9.6 8.5 7.0 84 1.2 ESE 2 6 1 3 1021.0 - 0.0
24/10:00pm 9.3 8.4 6.2 81 1.4 CALM 0 0 0 0 1021.0 1021.0 0.0
24/09:30pm 10.5 9.9 7.4 81 1.5 CALM 0 0 0 0 1021.0 - 0.0
24/09:00pm 11.1 10.0 7.0 76 1.9 NNW 2 7 1 4 1020.8 1020.8 0.0
24/08:30pm 11.1 9.3 7.2 77 1.9 NNW 6 7 3 4 1020.7 - 0.0
24/08:00pm 11.5 10.0 7.0 74 2.1 NNW 4 6 2 3 1020.4 1020.4 0.0
24/07:30pm 12.1 11.4 6.8 70 2.5 CALM 0 7 0 4 1020.2 - 0.0
24/07:00pm 12.7 11.9 6.5 66 2.9 CALM 0 0 0 0 1020.0 1020.0 0.0
24/06:30pm 14.8 13.8 7.4 61 3.6 N 2 6 1 3 1019.8 - 0.0
24/06:00pm 15.3 14.5 8.1 62 3.6 N 2 7 1 4 1019.5 1019.5 0.0
24/05:30pm 15.1 14.6 7.9 62 3.6 CALM 0 0 0 0 1019.3 - 0.0
24/05:00pm 16.2 15.7 7.7 57 4.2 CALM 0 6 0 3 1019.1 1019.1 0.0
24/04:30pm 16.5 14.6 7.4 55 4.5 NNW 7 11 4 6 1019.1 - 0.0
24/04:00pm 16.8 14.8 7.2 53 4.8 NNW 7 9 4 5 1019.1 1019.1 0.0
24/03:30pm 17.0 14.6 7.1 52 4.9 NNW 9 13 5 7 1018.9 - 0.0
24/03:00pm 18.3 15.7 7.7 50 5.4 NNW 11 15 6 8 1018.9 1018.9 0.0
24/02:30pm 17.2 14.5 7.5 53 4.9 NNW 11 17 6 9 1019.0 - 0.0
24/02:00pm 16.2 13.6 7.7 57 4.2 N 11 15 6 8 1019.4 1019.4 0.0
24/01:30pm 16.0 13.5 8.2 60 3.9 N 11 15 6 8 1019.7 - 0.0
24/01:00pm 15.1 13.5 8.6 65 3.3 NNW 7 11 4 6 1020.2 1020.2 0.0
24/12:30pm 14.7 12.8 8.9 68 2.9 NW 9 13 5 7 1020.8 - 0.0
24/12:00pm 14.1 12.6 8.5 69 2.8 NNW 6 7 3 4 1021.2 1021.2 0.0
24/11:30am 14.5 12.5 8.5 67 3.0 NW 9 13 5 7 1021.9 - 0.0
24/11:00am 13.9 11.9 8.7 71 2.6 NW 9 13 5 7 1022.4 1022.4 0.0
24/10:30am 12.6 10.2 8.5 76 2.0 NW 11 13 6 7 1022.9 - 0.0
24/10:00am 11.6 10.1 8.3 80 1.6 WNW 6 7 3 4 1022.9 1022.9 0.0
24/09:30am 10.7 9.0 8.3 85 1.2 WNW 7 9 4 5 1022.9 - 0.0
24/09:00am 9.8 8.1 8.2 90 0.8 NW 7 9 4 5 1022.7 1022.7 0.0
24/08:30am 9.1 7.6 8.3 95 0.4 N 6 9 3 5 1022.3 - 0.0
24/08:00am 6.7 4.4 5.8 94 0.4 NNW 7 7 4 4 1022.4 1022.4 0.0
24/07:30am 5.9 4.8 5.0 94 0.4 CALM 0 0 0 0 1022.3 - 0.0
24/07:00am 4.4 3.0 3.5 94 0.4 CALM 0 0 0 0 1022.1 1022.1 0.0
24/06:30am 4.6 3.2 3.7 94 0.4 CALM 0 0 0 0 1022.0 - 0.0
24/06:00am 4.5 3.1 3.6 94 0.4 CALM 0 6 0 3 1021.6 1021.6 0.0
24/05:41am 3.9 2.4 2.9 93 0.4 CALM 0 0 0 0 1021.6 - 0.0
24/05:30am 3.9 2.4 2.9 93 0.4 CALM 0 0 0 0 1021.3 - 0.0
24/05:08am 4.4 3.0 3.4 93 0.4 CALM 0 0 0 0 1021.2 - 0.0
24/05:00am 4.6 3.2 3.6 93 0.4 CALM 0 0 0 0 1021.1 1021.1 0.0
24/04:50am 5.2 3.9 4.3 94 0.4 CALM 0 0 0 0 1021.1 - 0.0
24/04:30am 4.4 3.0 3.4 93 0.4 CALM 0 0 0 0 1021.2 - 0.0
24/04:09am 4.6 3.2 3.6 93 0.4 CALM 0 0 0 0 1021.2 - 0.0
24/04:00am 4.4 3.0 3.4 93 0.4 CALM 0 0 0 0 1021.1 1021.1 0.0
24/03:30am 5.0 3.7 4.0 93 0.4 CALM 0 0 0 0 1021.1 - 0.0
24/03:28am 5.3 4.0 4.3 93 0.4 CALM 0 0 0 0 1021.1 - 0.0
24/03:24am 4.9 3.5 3.7 92 0.5 CALM 0 0 0 0 1021.2 - 0.0
24/03:00am 5.3 4.0 4.3 93 0.4 CALM 0 0 0 0 1021.4 1021.4 0.0
24/02:30am 6.0 4.8 4.8 92 0.5 CALM 0 0 0 0 1021.4 - 0.0
24/02:11am 6.2 5.1 5.0 92 0.5 CALM 0 0 0 0 1021.6 - 0.0
24/02:00am 6.3 5.2 5.1 92 0.5 CALM 0 0 0 0 1021.5 1021.5 0.0
24/01:35am 5.8 4.6 4.4 91 0.6 CALM 0 0 0 0 1021.9 - 0.0
24/01:30am 5.9 4.7 4.7 92 0.5 CALM 0 0 0 0 1022.0 - 0.0
24/01:21am 6.0 4.8 4.8 92 0.5 CALM 0 0 0 0 1022.1 - 0.0
24/01:00am 7.0 6.0 5.8 92 0.5 CALM 0 0 0 0 1022.3 1022.3 0.0
24/12:30am 6.8 5.8 5.4 91 0.6 CALM 0 0 0 0 1022.4 - 0.0
24/12:00am 6.8 5.8 5.4 91 0.6 CALM 0 0 0 0 1022.5 1022.5 0.0
 
Date/Time
EST
Temp
°C
App
Temp
°C
Dew
Point
Rel
Hum
%
Delta-T
°C
Wind Press
QNH
hPa
Press
MSL
hPa
Rain
since 9 am
mm
Dir
 
Spd
km/h
Gust
km/h
Spd
kts
Gust
kts
23/11:30pm 6.8 5.8 5.4 91 0.6 CALM 0 0 0 0 1022.8 - 0.0
23/11:20pm 7.6 6.7 6.2 91 0.6 CALM 0 0 0 0 1022.9 - 0.0
23/11:00pm 7.2 6.2 5.7 90 0.7 CALM 0 0 0 0 1022.8 1022.8 0.0
23/10:30pm 7.6 6.7 5.9 89 0.8 CALM 0 0 0 0 1023.0 - 0.0
23/10:13pm 7.6 6.6 5.7 88 0.9 CALM 0 0 0 0 1023.2 - 0.0
23/10:00pm 8.0 7.1 6.0 87 0.9 CALM 0 0 0 0 1023.3 1023.3 0.0
23/09:30pm 8.9 8.2 6.9 87 0.9 CALM 0 0 0 0 1023.4 - 0.0
23/09:00pm 8.8 8.0 6.6 86 1.0 CALM 0 0 0 0 1023.2 1023.2 0.0
23/08:30pm 9.3 8.5 6.6 83 1.3 CALM 0 0 0 0 1022.9 - 0.0
23/08:00pm 10.3 9.7 7.2 81 1.5 CALM 0 0 0 0 1022.8 1022.8 0.0
23/07:30pm 11.5 11.0 8.0 79 1.7 CALM 0 0 0 0 1022.6 - 0.0
23/07:00pm 11.1 9.9 6.6 74 2.1 E 2 7 1 4 1022.4 1022.4 0.0
23/06:30pm 13.8 12.2 8.0 68 2.9 ENE 6 9 3 5 1022.3 - 0.0
23/06:00pm 14.6 12.8 8.1 65 3.2 ESE 7 9 4 5 1022.2 1022.2 0.0
23/05:30pm 14.9 12.3 7.9 63 3.5 E 11 15 6 8 1021.9 - 0.0
23/05:00pm 15.4 12.4 7.9 61 3.7 E 13 19 7 10 1021.7 1021.7 0.0
23/04:30pm 15.8 12.4 7.8 59 4.0 E 15 20 8 11 1021.5 - 0.0
23/04:00pm 16.4 12.6 7.6 56 4.4 E 17 19 9 10 1021.4 1021.4 0.0
23/03:30pm 17.8 15.4 5.1 43 6.1 N 7 11 4 6 1021.4 - 0.0
23/03:00pm 18.2 15.6 6.1 45 5.9 SSE 9 11 5 6 1021.3 1021.3 0.0

Other Formats:

Comma delimited format used in spreadsheet applications
http://www.bom.gov.au/fwo/IDN60801/IDN60801.94765.axf

JavaScript Object Notation format (JSON) in row-major order
http://www.bom.gov.au/fwo/IDN60801/IDN60801.94765.json